Time;durP1;ratioP1;P1;durP2;ratioP2;P2;SDS_P1;SDS_P2;PMS_P1;PMS_P2;Temp;Humidity;BMP_temperature;BMP_pressure;BME280_temperature;BME280_humidity;BME280_pressure;Samples;Min_cycle;Max_cycle;Signal;HPM_P1;HPM_P2
2023/12/18 00:02:27;;;;;;;41.53;17.67;;;;;;;6.81;47.43;101669.44;10399150;28;20555;-79
2023/12/18 00:07:28;;;;;;;42.40;16.10;;;;;;;7.31;45.46;101839.72;10397175;28;20293;-79
2023/12/18 00:12:30;;;;;;;51.57;16.97;;;;;;;7.69;45.30;101734.75;10399413;28;20254;-77
2023/12/18 00:17:32;;;;;;;49.07;16.87;;;;;;;5.32;48.97;101902.91;10404831;28;21314;-78
2023/12/18 00:22:33;;;;;;;57.00;16.33;;;;;;;5.00;49.84;101796.13;10408149;28;20245;-79
2023/12/18 00:27:35;;;;;;;35.60;16.40;;;;;;;8.16;44.79;101680.53;10402372;28;20244;-79
2023/12/18 00:32:44;;;;;;;45.87;16.83;;;;;;;8.28;44.89;101658.22;10407824;28;20224;-78
2023/12/18 00:37:46;;;;;;;35.53;16.00;;;;;;;7.48;46.79;101612.03;10405216;28;20290;-78
2023/12/18 00:42:53;;;;;;;48.97;19.10;;;;;;;6.44;47.35;101762.50;10401828;28;20784;-78
2023/12/18 00:47:55;;;;;;;31.90;17.77;;;;;;;7.40;46.25;101720.16;10393761;28;20236;-79
2023/12/18 00:52:57;;;;;;;38.77;15.93;;;;;;;7.50;46.33;101626.06;10401319;28;20824;-79
2023/12/18 00:57:58;;;;;;;35.53;17.10;;;;;;;7.13;47.29;101647.53;10401309;28;20306;-79
2023/12/18 01:03:01;;;;;;;34.50;17.37;;;;;;;8.02;45.31;101615.81;10397108;28;20228;-79
2023/12/18 01:08:04;;;;;;;30.90;16.70;;;;;;;6.87;46.54;101782.59;10396691;28;20235;-79
2023/12/18 01:13:05;;;;;;;31.00;17.27;;;;;;;7.65;45.81;101639.19;10399513;28;20250;-79
2023/12/18 01:18:07;;;;;;;38.70;19.67;;;;;;;7.98;45.64;101582.38;10397289;28;20239;-79
2023/12/18 01:23:09;;;;;;;33.13;17.80;;;;;;;7.44;46.49;101613.25;10403084;28;20529;-80
2023/12/18 01:28:10;;;;;;;29.80;18.43;;;;;;;7.16;46.07;101747.66;10404345;28;20314;-80
2023/12/18 01:33:13;;;;;;;32.77;16.70;;;;;;;7.96;45.08;101648.28;10394095;28;20262;-79
2023/12/18 01:38:15;;;;;;;28.07;18.47;;;;;;;7.39;45.52;101777.03;10395782;28;20236;-80
2023/12/18 01:43:28;;;;;;;33.13;18.57;;;;;;;8.25;44.37;101683.31;10394824;28;20240;-80
2023/12/18 01:48:31;;;;;;;26.80;17.57;;;;;;;5.74;49.67;101554.88;10393401;28;20242;-79
2023/12/18 01:53:42;;;;;;;25.47;17.17;;;;;;;4.54;50.34;101750.38;10396599;28;20741;-78
2023/12/18 01:58:44;;;;;;;24.80;16.57;;;;;;;4.53;52.21;101466.78;10414114;28;20239;-79
2023/12/18 02:03:46;;;;;;;25.80;16.90;;;;;;;5.83;47.95;101690.59;10399404;28;20233;-79
2023/12/18 02:08:48;;;;;;;27.33;17.57;;;;;;;5.30;50.35;101493.31;10393017;28;20335;-79
2023/12/18 02:13:50;;;;;;;25.67;17.77;;;;;;;5.55;49.31;101550.84;10400917;28;20702;-79
2023/12/18 02:18:52;;;;;;;25.23;16.33;;;;;;;6.88;46.22;101650.34;10398899;28;20343;-79
2023/12/18 02:23:53;;;;;;;36.50;17.57;;;;;;;6.71;47.30;101510.56;10398614;28;20233;-79
2023/12/18 02:28:55;;;;;;;25.17;17.10;;;;;;;7.07;47.01;101479.44;10386169;28;20242;-79
2023/12/18 02:33:58;;;;;;;29.50;17.07;;;;;;;6.28;47.14;101621.00;10413616;28;20229;-79
2023/12/18 02:38:59;;;;;;;51.60;17.27;;;;;;;4.11;51.29;101590.53;10402802;28;20296;-79
2023/12/18 02:44:01;;;;;;;48.83;15.27;;;;;;;4.14;50.68;101693.69;10399369;28;20243;-79
2023/12/18 02:49:03;;;;;;;50.17;15.63;;;;;;;4.27;50.74;101617.75;10388033;28;20234;-80
2023/12/18 02:54:05;;;;;;;61.53;17.20;;;;;;;6.07;47.79;101560.44;10397364;28;20236;-79
2023/12/18 02:59:07;;;;;;;56.77;18.17;;;;;;;6.60;47.83;101442.22;10394107;28;20327;-80
2023/12/18 03:04:09;;;;;;;29.43;16.23;;;;;;;5.52;49.02;101521.88;10383251;28;20649;-79
2023/12/18 03:09:10;;;;;;;25.43;16.50;;;;;;;6.70;46.68;101541.66;10397013;28;20326;-80
2023/12/18 03:14:12;;;;;;;29.53;16.90;;;;;;;5.04;47.80;101704.78;10389682;28;20317;-80
2023/12/18 03:19:15;;;;;;;29.60;16.77;;;;;;;6.56;46.90;101532.03;10395961;28;20236;-80
2023/12/18 03:24:17;;;;;;;28.07;17.53;;;;;;;7.32;45.76;101476.53;10393216;28;20297;-80
2023/12/18 03:29:21;;;;;;;24.97;16.57;;;;;;;6.64;45.88;101667.16;10392025;28;20632;-79
2023/12/18 03:34:22;;;;;;;24.40;15.63;;;;;;;6.52;46.15;101618.34;10392039;28;20227;-79
2023/12/18 03:39:24;;;;;;;23.60;17.10;;;;;;;7.27;44.71;101625.19;10395206;28;20322;-79
2023/12/18 03:44:26;;;;;;;22.10;14.97;;;;;;;7.05;45.05;101633.13;10394228;28;20321;-79
2023/12/18 03:49:27;;;;;;;24.60;16.13;;;;;;;6.59;46.18;101565.53;10408547;28;20312;-79
2023/12/18 03:54:29;;;;;;;23.40;15.23;;;;;;;6.24;46.46;101652.28;10391115;28;20235;-79
2023/12/18 03:59:31;;;;;;;23.43;15.20;;;;;;;6.59;47.09;101491.91;10402541;28;20700;-79
2023/12/18 04:04:33;;;;;;;23.03;15.90;;;;;;;7.41;45.13;101495.41;10400061;28;20329;-80
2023/12/18 04:09:38;;;;;;;24.23;15.53;;;;;;;7.45;44.31;101622.91;10405474;28;20273;-80
2023/12/18 04:14:42;;;;;;;22.03;16.23;;;;;;;6.32;47.16;101494.00;10398573;28;20322;-78
2023/12/18 04:19:44;;;;;;;25.67;15.53;;;;;;;6.31;46.54;101548.13;10399345;28;20328;-80
2023/12/18 04:24:46;;;;;;;25.53;13.93;;;;;;;3.62;49.17;101755.97;10403193;28;20235;-79
2023/12/18 04:29:48;;;;;;;21.07;14.30;;;;;;;4.57;48.67;101689.19;10404522;28;20264;-79
2023/12/18 04:34:50;;;;;;;17.33;13.50;;;;;;;5.12;47.32;101684.75;10403732;28;20572;-79
2023/12/18 04:39:54;;;;;;;21.03;13.93;;;;;;;5.99;46.42;101586.75;10401435;28;20234;-79
2023/12/18 04:45:03;;;;;;;22.37;13.40;;;;;;;5.00;47.65;101650.19;10399451;28;20230;-76
2023/12/18 04:50:05;;;;;;;22.60;13.57;;;;;;;5.63;47.42;101471.50;10391467;28;20239;-76
2023/12/18 04:55:07;;;;;;;23.17;13.47;;;;;;;4.75;48.65;101583.72;10406648;28;20717;-74
2023/12/18 05:00:10;;;;;;;22.90;14.23;;;;;;;5.10;49.23;101354.09;10392943;28;20258;-75
2023/12/18 05:05:11;;;;;;;20.93;14.20;;;;;;;5.31;48.81;101413.56;10440531;28;20279;-73
2023/12/18 05:10:13;;;;;;;19.97;13.13;;;;;;;5.23;48.25;101469.00;10424398;28;20233;-74
2023/12/18 05:15:15;;;;;;;23.07;14.00;;;;;;;4.10;49.60;101512.81;10445846;28;20226;-74
2023/12/18 05:20:16;;;;;;;18.37;14.40;;;;;;;5.60;47.22;101460.28;10444107;28;20798;-74
2023/12/18 05:25:18;;;;;;;20.23;13.57;;;;;;;5.73;46.63;101461.06;10446171;28;20320;-74
2023/12/18 05:30:20;;;;;;;18.83;13.43;;;;;;;4.84;47.11;101618.53;10432233;28;20329;-74
2023/12/18 05:35:21;;;;;;;22.10;14.93;;;;;;;6.42;45.50;101455.13;10439715;28;20222;-74
2023/12/18 05:40:23;;;;;;;22.33;14.23;;;;;;;5.01;48.13;101488.22;10439209;28;20323;-74
2023/12/18 05:45:25;;;;;;;19.70;13.97;;;;;;;4.73;46.97;101646.63;10442049;28;20663;-74
2023/12/18 05:50:27;;;;;;;22.80;13.63;;;;;;;6.26;45.23;101508.56;10439621;28;20260;-74
2023/12/18 05:55:28;;;;;;;22.77;13.73;;;;;;;6.00;45.39;101527.28;10443631;28;20257;-74
2023/12/18 06:00:30;;;;;;;30.37;13.73;;;;;;;3.62;49.13;101640.31;10425381;28;20237;-74
2023/12/18 06:05:32;;;;;;;32.40;13.17;;;;;;;4.98;47.76;101485.81;10442124;28;20241;-74
2023/12/18 06:10:34;;;;;;;25.87;13.20;;;;;;;6.52;44.92;101469.41;10440310;28;20242;-74
2023/12/18 06:15:35;;;;;;;19.30;12.27;;;;;;;4.07;48.64;101526.31;10449106;28;20290;-74
2023/12/18 06:20:37;;;;;;;17.73;12.03;;;;;;;6.38;44.78;101528.97;10439641;28;20242;-74
2023/12/18 06:25:39;;;;;;;21.73;13.13;;;;;;;4.54;47.02;101691.19;10428032;28;20628;-76
2023/12/18 06:30:40;;;;;;;17.10;12.80;;;;;;;4.50;47.97;101610.16;10439785;28;20286;-74
2023/12/18 06:35:42;;;;;;;24.43;13.23;;;;;;;4.52;47.19;101634.75;10445526;28;20759;-73
2023/12/18 06:40:44;;;;;;;16.20;10.90;;;;;;;1.43;52.86;101704.41;10440039;28;20265;-74
2023/12/18 06:45:46;;;;;;;33.73;12.10;;;;;;;3.73;50.41;101404.00;10427044;28;20585;-74
2023/12/18 06:50:47;;;;;;;17.30;11.00;;;;;;;2.37;51.04;101638.72;10441929;28;20236;-74
2023/12/18 06:55:49;;;;;;;19.53;12.67;;;;;;;1.64;53.06;101569.66;10443489;28;20224;-74
2023/12/18 07:00:50;;;;;;;15.00;10.87;;;;;;;1.98;53.76;101455.16;10446587;28;20243;-74
2023/12/18 07:05:53;;;;;;;14.00;11.30;;;;;;;2.69;51.62;101482.75;10442206;28;20224;-74
2023/12/18 07:10:57;;;;;;;18.07;12.00;;;;;;;6.20;45.50;101471.84;10443297;28;20695;-73
2023/12/18 07:15:59;;;;;;;17.07;12.20;;;;;;;6.06;44.98;101507.41;10430227;28;20291;-74
2023/12/18 07:21:01;;;;;;;17.40;12.17;;;;;;;4.49;47.31;101582.78;10423674;28;20272;-73
2023/12/18 07:26:03;;;;;;;23.27;15.87;;;;;;;3.97;48.14;101655.84;10455733;28;20335;-74
2023/12/18 07:31:04;;;;;;;19.97;12.97;;;;;;;2.37;51.78;101630.81;10449252;28;20233;-74
2023/12/18 07:36:06;;;;;;;45.80;14.87;;;;;;;4.30;48.81;101539.84;10432816;28;20241;-74
2023/12/18 07:41:08;;;;;;;24.37;13.60;;;;;;;4.94;48.07;101434.75;10450571;28;20286;-73
2023/12/18 07:46:19;;;;;;;22.40;13.50;;;;;;;3.01;49.19;101741.84;10435422;28;20236;-75
2023/12/18 07:51:22;;;;;;;26.47;16.00;;;;;;;5.48;46.95;101461.97;10451073;28;20286;-74
2023/12/18 07:56:24;;;;;;;32.90;12.97;;;;;;;4.57;47.80;101583.13;10449159;28;20243;-73
2023/12/18 08:01:25;;;;;;;68.40;16.50;;;;;;;4.00;48.56;101673.31;10452157;28;20727;-74
2023/12/18 08:06:27;;;;;;;53.87;14.70;;;;;;;4.54;47.77;101593.94;10429727;28;20239;-74
2023/12/18 08:11:29;;;;;;;73.30;16.57;;;;;;;4.47;47.91;101640.34;10447763;28;20233;-74
2023/12/18 08:16:30;;;;;;;70.83;13.87;;;;;;;4.12;49.09;101594.88;10431390;28;20236;-74
2023/12/18 08:21:32;;;;;;;93.00;15.17;;;;;;;2.69;51.35;101617.56;10446865;28;20258;-74
2023/12/18 08:26:34;;;;;;;60.47;13.70;;;;;;;3.08;51.74;101454.88;10440338;28;20259;-74
2023/12/18 08:31:37;;;;;;;46.20;14.47;;;;;;;2.97;50.60;101682.94;10454431;28;20248;-74
2023/12/18 08:36:39;;;;;;;61.03;14.03;;;;;;;4.65;48.47;101473.91;10432682;28;20224;-74
2023/12/18 08:41:43;;;;;;;83.40;15.90;;;;;;;2.71;51.56;101655.34;10448256;28;20707;-74
2023/12/18 08:46:44;;;;;;;40.00;13.23;;;;;;;4.20;49.09;101540.47;10452202;28;20320;-74
2023/12/18 08:51:47;;;;;;;73.53;14.00;;;;;;;4.80;50.02;101362.41;10450579;28;20593;-74
2023/12/18 08:56:50;;;;;;;57.47;12.80;;;;;;;2.06;53.25;101636.91;10447461;28;20238;-72
2023/12/18 09:01:52;;;;;;;76.73;13.77;;;;;;;4.97;48.39;101424.91;10440431;28;20236;-73
2023/12/18 09:06:54;;;;;;;43.13;11.90;;;;;;;2.10;53.05;101633.19;10436646;28;20239;-76
2023/12/18 09:11:55;;;;;;;69.17;13.67;;;;;;;3.48;51.14;101439.16;10433230;28;20726;-76
2023/12/18 09:16:57;;;;;;;51.63;12.53;;;;;;;4.15;50.32;101372.09;10430068;28;20278;-76
2023/12/18 09:21:59;;;;;;;32.33;12.07;;;;;;;4.14;50.56;101431.38;10440300;28;20323;-73
2023/12/18 09:27:02;;;;;;;28.50;12.93;;;;;;;3.66;51.45;101381.50;10441250;28;20239;-75
2023/12/18 09:32:04;;;;;;;40.10;12.40;;;;;;;1.65;54.22;101675.13;10441990;28;20708;-75
2023/12/18 09:37:05;;;;;;;46.50;14.67;;;;;;;4.43;50.33;101341.13;10431176;28;20230;-75
2023/12/18 09:42:09;;;;;;;17.73;12.90;;;;;;;3.32;51.96;101470.16;10428274;28;20781;-76
2023/12/18 09:47:13;;;;;;;15.27;12.63;;;;;;;5.71;47.66;101492.22;10432137;28;20723;-76
2023/12/18 09:52:17;;;;;;;20.13;14.13;;;;;;;5.68;47.75;101501.25;10435040;28;20251;-76
2023/12/18 09:57:20;;;;;;;18.70;14.57;;;;;;;3.75;51.02;101536.28;10442619;28;20305;-76
2023/12/18 10:02:24;;;;;;;20.03;13.63;;;;;;;4.66;49.85;101554.28;10446146;28;20678;-76
2023/12/18 10:07:25;;;;;;;18.90;13.20;;;;;;;3.52;52.35;101467.09;10442520;28;20260;-75
2023/12/18 10:12:27;;;;;;;19.27;14.20;;;;;;;5.75;48.67;101365.34;10432938;28;20309;-74
2023/12/18 10:17:30;;;;;;;20.37;13.43;;;;;;;2.81;52.78;101645.94;10432017;28;20708;-74
2023/12/18 10:22:32;;;;;;;20.43;13.60;;;;;;;4.80;48.73;101603.78;10430146;28;20660;-76
2023/12/18 10:27:38;;;;;;;19.23;13.80;;;;;;;5.59;48.88;101379.75;10448449;28;20235;-74
2023/12/18 10:32:40;;;;;;;19.53;13.40;;;;;;;5.79;48.63;101451.81;10422506;28;20784;-74
2023/12/18 10:37:48;;;;;;;17.73;13.40;;;;;;;4.64;49.99;101659.63;10412711;28;20242;-73
2023/12/18 10:42:56;;;;;;;22.77;15.40;;;;;;;4.83;50.58;101585.00;10420144;28;20235;-74
2023/12/18 10:47:59;;;;;;;21.57;15.27;;;;;;;6.54;49.43;101361.06;10449128;28;20616;-76
2023/12/18 10:53:03;;;;;;;21.20;15.67;;;;;;;7.40;46.05;101651.72;10419682;28;20251;-74
2023/12/18 10:58:09;;;;;;;18.23;14.30;;;;;;;8.00;46.17;101465.81;10442137;28;20337;-74
2023/12/18 11:06:13;;;;;;;18.73;14.73;;;;;;;6.34;49.83;101461.00;10493423;27;20340;-75
2023/12/18 11:11:18;;;;;;;19.00;15.07;;;;;;;6.69;49.55;101419.38;10499064;28;20519;-75
2023/12/18 11:16:35;;;;;;;16.10;12.00;;;;;;;5.61;51.08;101425.63;10509531;28;20234;-73
2023/12/18 11:21:36;;;;;;;19.50;13.80;;;;;;;7.25;47.14;101535.75;10462635;28;20258;-74
2023/12/18 11:26:39;;;;;;;23.30;17.20;;;;;;;7.26;47.71;101542.78;10501955;28;20328;-75
2023/12/18 11:31:40;;;;;;;24.00;15.37;;;;;;;7.26;48.01;101537.44;10508274;28;20231;-75
2023/12/18 11:36:42;;;;;;;20.77;15.10;;;;;;;8.25;46.66;101459.28;10512703;28;20704;-75
2023/12/18 11:41:44;;;;;;;55.73;26.37;;;;;;;8.69;46.79;101423.63;10510092;28;20247;-74
2023/12/18 11:46:50;;;;;;;19.97;14.93;;;;;;;6.18;50.41;101625.28;10512995;28;20238;-75
2023/12/18 11:51:51;;;;;;;20.40;14.80;;;;;;;8.14;47.88;101410.50;10513935;28;20291;-75
2023/12/18 11:56:55;;;;;;;20.00;14.23;;;;;;;7.86;47.19;101655.31;10511673;28;20330;-74
2023/12/18 12:01:57;;;;;;;17.17;13.13;;;;;;;9.17;46.54;101453.25;10508388;28;20580;-75
2023/12/18 12:07:00;;;;;;;16.70;13.77;;;;;;;8.99;46.64;101465.53;10512255;28;20231;-75
2023/12/18 12:12:02;;;;;;;15.03;12.90;;;;;;;9.47;45.88;101451.53;10510777;28;20721;-75
2023/12/18 12:17:04;;;;;;;16.43;12.73;;;;;;;9.07;46.22;101497.78;10438925;28;20232;-75
2023/12/18 12:22:06;;;;;;;14.90;13.27;;;;;;;10.24;44.83;101449.97;10483693;28;20481;-75
2023/12/18 12:27:08;;;;;;;16.07;12.47;;;;;;;7.82;47.76;101597.88;10432395;28;20227;-75
2023/12/18 12:32:11;;;;;;;17.03;13.07;;;;;;;8.96;47.52;101439.97;10472744;28;20314;-74
2023/12/18 12:37:16;;;;;;;14.27;11.80;;;;;;;8.62;46.33;101538.03;10432507;28;20761;-75
2023/12/18 12:42:18;;;;;;;15.63;12.27;;;;;;;8.91;45.70;101598.84;10476629;28;20219;-75
2023/12/18 12:47:19;;;;;;;16.80;12.27;;;;;;;9.06;46.52;101484.53;10428562;28;20311;-75
2023/12/18 12:52:21;;;;;;;16.73;12.20;;;;;;;10.36;43.46;101511.34;10478637;28;20878;-75
2023/12/18 12:57:23;;;;;;;14.53;12.47;;;;;;;9.92;44.18;101591.97;10431622;28;20223;-75
2023/12/18 13:02:26;;;;;;;16.77;12.47;;;;;;;9.72;45.89;101417.25;10472067;28;20246;-73
2023/12/18 13:07:27;;;;;;;13.03;11.17;;;;;;;9.95;45.23;101485.56;10434958;28;20669;-73
2023/12/18 13:12:29;;;;;;;16.20;12.20;;;;;;;9.52;45.77;101493.91;10479189;28;20242;-75
2023/12/18 13:17:32;;;;;;;12.93;11.30;;;;;;;9.66;45.04;101560.31;10473449;28;20635;-74
2023/12/18 13:22:34;;;;;;;15.60;12.20;;;;;;;9.87;45.74;101463.16;10429303;28;20240;-73
2023/12/18 13:27:35;;;;;;;13.30;10.63;;;;;;;11.59;43.21;101346.94;10477663;28;20713;-73
2023/12/18 13:32:39;;;;;;;12.27;10.40;;;;;;;11.95;42.27;101369.28;10478664;28;20258;-74
2023/12/18 13:37:41;;;;;;;14.83;10.07;;;;;;;10.89;42.90;101522.47;10472773;28;20725;-75
2023/12/18 13:42:43;;;;;;;11.63;9.07;;;;;;;12.48;40.58;101385.47;10469338;28;20274;-74
2023/12/18 13:47:45;;;;;;;8.73;7.67;;;;;;;11.17;41.97;101477.00;10480061;28;20269;-74
2023/12/18 13:52:48;;;;;;;10.27;7.93;;;;;;;10.21;42.46;101535.88;10474062;28;20613;-73
2023/12/18 13:57:50;;;;;;;9.40;8.07;;;;;;;12.07;40.60;101457.59;10477579;28;20273;-74
2023/12/18 14:02:52;;;;;;;10.63;8.80;;;;;;;10.89;42.06;101517.09;10478619;28;20255;-75
2023/12/18 14:07:54;;;;;;;10.60;8.37;;;;;;;11.84;41.48;101364.16;10476775;28;20710;-74
2023/12/18 14:12:56;;;;;;;8.87;7.47;;;;;;;11.06;41.22;101517.34;10478558;28;20427;-73
2023/12/18 14:17:57;;;;;;;9.93;7.53;;;;;;;12.16;40.29;101460.19;10476756;28;20709;-75
2023/12/18 14:22:59;;;;;;;9.73;8.27;;;;;;;10.87;42.28;101444.09;10479616;28;20318;-75
2023/12/18 14:28:01;;;;;;;10.47;8.83;;;;;;;12.49;40.12;101393.34;10478909;28;20239;-74
2023/12/18 14:33:03;;;;;;;11.37;8.17;;;;;;;11.95;41.04;101404.16;10475527;28;20239;-75
2023/12/18 14:38:05;;;;;;;14.30;10.27;;;;;;;12.10;40.91;101404.44;10480221;28;20236;-75
2023/12/18 14:43:07;;;;;;;13.37;10.13;;;;;;;11.63;41.57;101385.91;10475341;28;20227;-75
2023/12/18 14:48:09;;;;;;;12.60;10.30;;;;;;;12.62;40.26;101344.59;10478678;28;20232;-75
2023/12/18 14:53:17;;;;;;;11.73;9.23;;;;;;;11.90;40.75;101427.91;10475280;28;20607;-75
2023/12/18 14:58:19;;;;;;;10.63;8.77;;;;;;;10.55;42.78;101323.16;10470216;28;20318;-75
2023/12/18 15:05:13;;;;;;;9.70;7.80;;;;;;;9.33;45.25;101208.78;10522463;27;20348;-77
2023/12/18 15:10:15;;;;;;;9.23;7.77;;;;;;;9.37;44.91;101156.78;10491547;28;20671;-75
2023/12/18 15:15:16;;;;;;;10.00;8.23;;;;;;;8.48;44.64;101313.25;10516758;28;20609;-79
2023/12/18 15:20:18;;;;;;;9.60;7.73;;;;;;;9.13;44.19;101304.09;10513021;28;20344;-82
2023/12/18 15:25:21;;;;;;;11.67;8.40;;;;;;;8.95;44.35;101286.06;10515610;28;20227;-82
2023/12/18 15:30:23;;;;;;;9.50;7.77;;;;;;;9.32;44.26;101207.97;10519307;28;20237;-84
2023/12/18 15:35:25;;;;;;;10.90;8.67;;;;;;;9.83;42.70;101227.31;10522488;28;20644;-80
2023/12/18 15:40:26;;;;;;;10.80;8.77;;;;;;;8.63;43.41;101343.09;10516396;28;20239;-83
2023/12/18 15:45:28;;;;;;;11.97;10.27;;;;;;;9.80;42.68;101248.13;10513383;28;20262;-79
2023/12/18 15:50:30;;;;;;;13.70;9.90;;;;;;;10.21;41.60;101327.19;10508366;28;20244;-77
2023/12/18 15:55:31;;;;;;;13.67;9.93;;;;;;;9.33;42.63;101383.31;10515347;28;20226;-78
2023/12/18 16:00:33;;;;;;;11.63;9.13;;;;;;;8.85;43.87;101218.44;10509669;28;20238;-80
2023/12/18 16:05:35;;;;;;;11.70;8.53;;;;;;;9.89;41.81;101234.78;10484051;28;20243;-78
2023/12/18 16:10:37;;;;;;;11.03;9.10;;;;;;;10.04;41.68;101215.59;10495602;28;20269;-85
2023/12/18 16:15:40;;;;;;;11.50;9.13;;;;;;;8.96;42.57;101341.19;10458060;28;20698;-78
2023/12/18 16:20:41;;;;;;;9.40;8.47;;;;;;;7.74;44.12;101306.19;10466888;28;21289;-76
2023/12/18 16:25:43;;;;;;;10.57;8.63;;;;;;;7.58;45.09;101148.63;10489649;28;20774;-77
2023/12/18 16:30:48;;;;;;;10.37;8.30;;;;;;;7.89;44.72;101146.00;10483749;28;20250;-78
2023/12/18 16:35:58;;;;;;;9.77;8.77;;;;;;;10.84;39.90;101211.41;10490498;28;20226;-78
2023/12/18 16:41:00;;;;;;;10.30;9.13;;;;;;;8.73;42.29;101321.81;10486209;28;20317;-78
2023/12/18 16:46:02;;;;;;;15.33;11.70;;;;;;;8.54;43.98;101164.28;10455200;28;20326;-77
2023/12/18 16:51:04;;;;;;;20.40;14.63;;;;;;;9.20;43.38;101135.16;10467493;28;20227;-76
2023/12/18 16:56:06;;;;;;;21.67;14.97;;;;;;;7.97;43.58;101378.09;10474217;28;20318;-73
2023/12/18 17:01:09;;;;;;;14.17;10.90;;;;;;;6.87;46.35;101250.34;10428442;22;20321;-38
2023/12/18 17:06:12;;;;;;;16.17;12.27;;;;;;;8.57;44.17;101135.53;10358418;28;20230;-36
2023/12/18 17:11:14;;;;;;;16.40;11.60;;;;;;;8.27;44.49;101240.47;10365094;22;20280;-42
2023/12/18 17:16:16;;;;;;;16.30;12.23;;;;;;;5.86;48.96;101113.00;10368297;28;20230;-41
2023/12/18 17:21:18;;;;;;;17.40;11.57;;;;;;;5.37;49.79;101177.81;10355746;28;20229;-41
2023/12/18 17:26:20;;;;;;;16.00;12.63;;;;;;;6.00;49.00;101155.25;10358627;28;20477;-40
2023/12/18 17:31:21;;;;;;;18.23;12.30;;;;;;;6.50;48.93;100999.75;10357558;28;20496;-40
2023/12/18 17:36:24;;;;;;;13.33;10.83;;;;;;;5.29;49.98;101150.06;10369846;28;20663;-41
2023/12/18 17:41:26;;;;;;;17.27;12.83;;;;;;;7.47;46.80;101104.22;10366310;28;20261;-43
2023/12/18 17:46:28;;;;;;;16.83;13.43;;;;;;;8.23;44.62;101180.34;10359752;28;20801;-42
2023/12/18 17:51:30;;;;;;;18.50;12.73;;;;;;;6.99;46.10;101293.75;10360760;28;20261;-42
2023/12/18 17:56:32;;;;;;;16.23;13.50;;;;;;;8.39;45.05;101049.16;10352150;28;20230;-42
2023/12/18 18:01:34;;;;;;;16.20;12.90;;;;;;;8.75;44.03;101100.97;10356897;28;20247;-40
2023/12/18 18:06:36;;;;;;;19.83;14.70;;;;;;;7.53;44.82;101287.53;10353620;28;20593;-43
2023/12/18 18:11:38;;;;;;;20.97;16.10;;;;;;;8.35;44.93;101098.41;10391158;28;20233;-41
2023/12/18 18:16:40;;;;;;;22.23;15.97;;;;;;;8.28;44.58;101194.13;10402015;28;20241;-41
2023/12/18 18:21:41;;;;;;;19.67;15.47;;;;;;;8.04;44.59;101149.97;10397764;28;20613;-40
2023/12/18 18:26:43;;;;;;;16.40;12.97;;;;;;;6.70;46.68;101226.84;10402384;28;20620;-40
2023/12/18 18:31:48;;;;;;;24.73;17.63;;;;;;;8.36;44.08;101100.13;10402466;28;20234;-38
2023/12/18 18:36:50;;;;;;;19.70;14.53;;;;;;;7.87;44.40;101185.25;10360152;28;20323;-38
2023/12/18 18:41:52;;;;;;;17.07;11.77;;;;;;;6.78;47.01;101145.50;10360897;28;20239;-39
2023/12/18 18:46:54;;;;;;;16.43;13.87;;;;;;;7.13;46.15;101160.34;10352057;28;20237;-41
2023/12/18 18:51:56;;;;;;;16.23;12.97;;;;;;;6.83;46.87;101163.72;10358426;28;20239;-39
2023/12/18 18:56:58;;;;;;;16.00;12.27;;;;;;;6.43;47.44;101255.56;10353176;28;20759;-40
2023/12/18 19:01:59;;;;;;;16.63;13.73;;;;;;;6.47;46.99;101244.69;10353713;28;20291;-43
2023/12/18 19:07:01;;;;;;;18.83;13.60;;;;;;;8.03;45.15;101057.66;10355327;28;20285;-42
2023/12/18 19:12:04;;;;;;;21.10;15.67;;;;;;;8.45;44.03;101083.28;10351442;28;20238;-41
2023/12/18 19:17:05;;;;;;;21.57;15.77;;;;;;;7.53;45.25;101186.28;10356670;28;20238;-40
2023/12/18 19:22:07;;;;;;;16.70;12.83;;;;;;;8.28;44.28;101127.47;10354396;28;20229;-42
2023/12/18 19:27:09;;;;;;;14.90;11.20;;;;;;;7.98;44.20;101174.50;10399381;28;20278;-41
2023/12/18 19:32:11;;;;;;;17.30;13.23;;;;;;;7.52;44.44;101243.19;10403635;28;20669;-39
2023/12/18 19:37:12;;;;;;;14.30;11.53;;;;;;;7.59;44.37;101186.75;10398627;28;20226;-40
2023/12/18 19:42:14;;;;;;;12.03;9.20;;;;;;;7.58;44.60;101132.63;10403337;28;20280;-41
2023/12/18 19:47:16;;;;;;;11.03;9.80;;;;;;;8.79;43.43;101038.34;10402388;28;20220;-39
2023/12/18 19:52:19;;;;;;;21.50;15.40;;;;;;;6.52;45.18;101324.94;10407979;28;20270;-41
2023/12/18 19:57:21;;;;;;;17.07;12.47;;;;;;;5.98;47.97;101058.03;10410849;28;20204;-41
2023/12/18 20:02:23;;;;;;;14.80;11.27;;;;;;;7.36;45.02;101152.25;10407651;28;20612;-41
2023/12/18 20:07:24;;;;;;;14.23;11.30;;;;;;;6.90;46.01;101124.16;10403557;28;20793;-38
2023/12/18 20:12:26;;;;;;;13.83;9.50;;;;;;;4.93;49.01;101234.09;10404554;28;20232;-41
2023/12/18 20:17:28;;;;;;;12.43;10.23;;;;;;;7.70;45.60;100965.53;10405631;28;20214;-42
2023/12/18 20:22:30;;;;;;;16.00;12.17;;;;;;;9.90;41.16;101137.50;10397595;28;20239;-40
2023/12/18 20:27:32;;;;;;;13.50;10.97;;;;;;;5.15;48.38;101203.34;10400788;28;20737;-44
2023/12/18 20:32:37;;;;;;;15.80;10.63;;;;;;;4.90;49.22;101181.25;10421525;28;20243;-42
2023/12/18 20:37:38;;;;;;;16.93;11.53;;;;;;;4.31;50.93;101155.44;10402991;28;20240;-38
2023/12/18 20:42:42;;;;;;;14.53;11.23;;;;;;;5.02;50.62;100948.69;10405594;28;20289;-42
2023/12/18 20:47:46;;;;;;;18.13;12.10;;;;;;;5.43;49.52;101004.81;10410035;28;20239;-37
2023/12/18 20:52:48;;;;;;;16.03;12.57;;;;;;;8.28;45.45;100949.63;10400453;28;20238;-38
2023/12/18 20:57:50;;;;;;;16.80;13.47;;;;;;;7.90;45.10;101030.41;10394831;28;20595;-42
2023/12/18 21:02:51;;;;;;;19.67;14.33;;;;;;;7.99;44.71;101082.06;10414288;28;20243;-43
2023/12/18 21:07:54;;;;;;;18.50;13.93;;;;;;;9.35;42.33;101142.72;10399206;28;20242;-42
2023/12/18 21:12:56;;;;;;;18.80;14.10;;;;;;;9.24;42.35;101143.72;10386268;28;20239;-42
2023/12/18 21:17:59;;;;;;;23.37;16.93;;;;;;;9.25;42.10;101155.22;10386643;28;20781;-41
2023/12/18 21:23:01;;;;;;;21.87;17.50;;;;;;;9.08;42.65;101109.59;10393844;28;20794;-40
2023/12/18 21:28:03;;;;;;;17.67;14.27;;;;;;;7.35;44.89;101244.59;10391999;28;20588;-42
2023/12/18 21:33:05;;;;;;;20.93;15.30;;;;;;;8.94;42.82;101094.81;10397904;28;20771;-41
2023/12/18 21:38:07;;;;;;;16.37;13.53;;;;;;;6.79;45.29;101223.50;10391705;28;20264;-39
2023/12/18 21:43:09;;;;;;;15.83;12.47;;;;;;;7.24;44.79;101167.47;10407637;28;20326;-42
2023/12/18 21:48:10;;;;;;;16.23;12.20;;;;;;;7.43;44.19;101152.59;10413192;28;20290;-38
2023/12/18 21:53:12;;;;;;;17.27;12.53;;;;;;;7.91;43.10;101176.00;10408291;28;20692;-37
2023/12/18 21:58:14;;;;;;;13.10;10.17;;;;;;;8.02;43.22;101090.63;10392157;28;20224;-42
2023/12/18 22:03:18;;;;;;;15.17;10.00;;;;;;;8.43;42.39;101101.25;10390656;28;20291;-40
2023/12/18 22:08:20;;;;;;;11.67;9.63;;;;;;;8.55;41.99;101158.81;10397596;28;20235;-41
2023/12/18 22:13:22;;;;;;;11.73;9.63;;;;;;;6.34;44.95;101118.00;10405848;28;20355;-39
2023/12/18 22:18:24;;;;;;;10.13;9.07;;;;;;;5.95;45.45;101092.81;10405333;28;20665;-38
2023/12/18 22:23:26;;;;;;;9.00;7.10;;;;;;;5.11;46.88;101103.69;10400743;28;20239;-41
2023/12/18 22:28:28;;;;;;;11.80;7.90;;;;;;;7.38;44.02;100904.47;10393832;28;20722;-40
2023/12/18 22:33:30;;;;;;;9.60;8.00;;;;;;;8.18;42.09;100956.78;10403598;28;20756;-40
2023/12/18 22:38:32;;;;;;;8.50;7.33;;;;;;;7.67;42.51;101086.53;10412766;28;20231;-42
2023/12/18 22:43:34;;;;;;;9.43;7.27;;;;;;;7.13;43.20;101111.59;10408748;28;20293;-41
2023/12/18 22:48:35;;;;;;;9.03;6.93;;;;;;;8.37;42.03;101033.31;10391838;28;20244;-42
2023/12/18 22:53:37;;;;;;;8.97;7.83;;;;;;;9.16;40.75;100976.19;10399668;28;20292;-41
2023/12/18 22:58:39;;;;;;;10.50;8.00;;;;;;;8.19;41.37;101179.78;10385869;28;20221;-38